Time,TemperatureF,DewpointF,PressureIn,WindDirection,WindDirectionDegrees,WindSpeedMPH,WindSpeedGustMPH,Humidity,HourlyPrecipIn,Conditions,Clouds,dailyrainin,SoftwareType,DateUTC
2013-05-08 00:11:00,56.5,52.0,30.30,South,189,4.0,5.0,84,0.00,,,0.00,weatherlink.com 1.10,2013-05-08 04:11:00,
2013-05-08 00:26:00,56.4,52.0,30.30,SSE,153,1.0,3.0,85,0.00,,,0.00,weatherlink.com 1.10,2013-05-08 04:26:00,
2013-05-08 00:41:00,56.2,52.0,30.29,South,181,0.0,4.0,86,0.00,,,0.00,weatherlink.com 1.10,2013-05-08 04:41:00,
2013-05-08 00:56:00,55.9,52.0,30.29,South,176,2.0,5.0,87,0.00,,,0.00,weatherlink.com 1.10,2013-05-08 04:56:00,
2013-05-08 01:11:00,55.9,52.0,30.28,SE,135,3.0,3.0,88,0.00,,,0.00,weatherlink.com 1.10,2013-05-08 05:11:00,
2013-05-08 01:26:00,56.1,53.0,30.27,ENE,71,1.0,4.0,88,0.00,,,0.00,weatherlink.com 1.10,2013-05-08 05:26:00,
2013-05-08 01:42:00,55.8,52.0,30.27,South,174,0.0,4.0,88,0.00,,,0.00,weatherlink.com 1.10,2013-05-08 05:42:00,
2013-05-08 01:57:00,55.5,52.0,30.26,SE,135,0.0,3.0,89,0.00,,,0.00,weatherlink.com 1.10,2013-05-08 05:57:00,
2013-05-08 02:12:00,55.3,52.0,30.26,SSW,193,5.0,6.0,89,0.00,,,0.00,weatherlink.com 1.10,2013-05-08 06:12:00,
2013-05-08 02:27:00,55.3,53.0,30.27,SSW,200,3.0,5.0,90,0.00,,,0.00,weatherlink.com 1.10,2013-05-08 06:27:00,
2013-05-08 02:42:00,55.1,52.0,30.27,SSE,166,3.0,6.0,90,0.00,,,0.00,weatherlink.com 1.10,2013-05-08 06:42:00,
2013-05-08 02:57:00,55.1,52.0,30.26,South,176,0.0,6.0,88,0.00,,,0.00,weatherlink.com 1.10,2013-05-08 06:57:00,
2013-05-08 03:12:00,55.2,52.0,30.26,SW,226,1.0,5.0,90,0.00,,,0.00,weatherlink.com 1.10,2013-05-08 07:12:00,
2013-05-08 03:27:00,55.4,53.0,30.26,SE,128,0.0,4.0,90,0.00,,,0.00,weatherlink.com 1.10,2013-05-08 07:27:00,
2013-05-08 03:42:00,55.7,53.0,30.25,North,359,3.0,4.0,89,0.00,,,0.00,weatherlink.com 1.10,2013-05-08 07:42:00,
2013-05-08 03:57:00,55.8,53.0,30.25,WNW,302,1.0,5.0,89,0.00,,,0.00,weatherlink.com 1.10,2013-05-08 07:57:00,
2013-05-08 04:12:00,55.6,53.0,30.25,SSE,158,0.0,3.0,90,0.00,,,0.00,weatherlink.com 1.10,2013-05-08 08:12:00,
2013-05-08 04:27:00,55.2,53.0,30.25,SSW,203,0.0,2.0,91,0.00,,,0.00,weatherlink.com 1.10,2013-05-08 08:27:00,
2013-05-08 04:42:00,55.0,53.0,30.25,SSE,160,1.0,4.0,91,0.00,,,0.00,weatherlink.com 1.10,2013-05-08 08:42:00,
2013-05-08 04:57:00,55.1,53.0,30.25,SSE,168,3.0,8.0,91,0.00,,,0.00,weatherlink.com 1.10,2013-05-08 08:57:00,
2013-05-08 05:12:00,55.2,53.0,30.25,SW,228,0.0,8.0,92,0.00,,,0.00,weatherlink.com 1.10,2013-05-08 09:12:00,
2013-05-08 05:27:00,55.4,53.0,30.25,South,188,3.0,7.0,92,0.00,,,0.00,weatherlink.com 1.10,2013-05-08 09:27:00,
2013-05-08 05:42:00,55.3,53.0,30.25,SSE,158,5.0,7.0,92,0.00,,,0.00,weatherlink.com 1.10,2013-05-08 09:42:00,
2013-05-08 05:57:00,55.6,53.0,30.25,SE,130,1.0,11.0,91,0.00,,,0.00,weatherlink.com 1.10,2013-05-08 09:57:00,
2013-05-08 06:12:00,55.6,53.0,30.25,SSW,202,2.0,11.0,92,0.00,,,0.00,weatherlink.com 1.10,2013-05-08 10:12:00,
2013-05-08 06:27:00,55.8,54.0,30.25,SSW,198,5.0,8.0,92,0.00,,,0.00,weatherlink.com 1.10,2013-05-08 10:27:00,
2013-05-08 06:42:00,56.4,54.0,30.26,SW,224,4.0,6.0,91,0.00,,,0.00,weatherlink.com 1.10,2013-05-08 10:42:00,
2013-05-08 06:57:00,56.7,54.0,30.26,SSE,160,5.0,7.0,91,0.00,,,0.00,weatherlink.com 1.10,2013-05-08 10:57:00,
2013-05-08 07:12:00,56.8,54.0,30.26,SW,225,2.0,5.0,91,0.00,,,0.00,weatherlink.com 1.10,2013-05-08 11:12:00,
2013-05-08 07:27:00,56.9,55.0,30.26,ESE,122,0.0,7.0,92,0.00,,,0.00,weatherlink.com 1.10,2013-05-08 11:27:00,
2013-05-08 07:42:00,57.1,55.0,30.27,SW,221,3.0,11.0,91,0.00,,,0.00,weatherlink.com 1.10,2013-05-08 11:42:00,
2013-05-08 07:57:00,56.8,55.0,30.27,SW,228,4.0,8.0,92,0.00,,,0.00,weatherlink.com 1.10,2013-05-08 11:57:00,
2013-05-08 08:12:00,56.5,55.0,30.27,ESE,117,1.0,10.0,93,0.00,,,0.00,weatherlink.com 1.10,2013-05-08 12:12:00,
2013-05-08 08:27:00,56.3,55.0,30.27,ESE,105,0.0,4.0,94,0.00,,,0.00,weatherlink.com 1.10,2013-05-08 12:27:00,
2013-05-08 08:42:00,56.2,55.0,30.27,SW,214,0.0,5.0,95,0.01,,,0.01,weatherlink.com 1.10,2013-05-08 12:42:00,
2013-05-08 08:57:00,56.2,55.0,30.27,SSW,203,2.0,11.0,94,0.01,,,0.01,weatherlink.com 1.10,2013-05-08 12:57:00,
2013-05-08 09:12:00,56.1,54.0,30.27,SSE,155,3.0,6.0,94,0.01,,,0.01,weatherlink.com 1.10,2013-05-08 13:12:00,
2013-05-08 09:27:00,56.0,55.0,30.27,SSE,167,2.0,5.0,95,0.02,,,0.02,weatherlink.com 1.10,2013-05-08 13:27:00,
2013-05-08 09:42:00,56.1,55.0,30.27,SW,233,1.0,2.0,96,0.04,,,0.05,weatherlink.com 1.10,2013-05-08 13:42:00,
2013-05-08 09:57:00,56.2,55.0,30.27,NE,53,2.0,9.0,95,0.05,,,0.06,weatherlink.com 1.10,2013-05-08 13:57:00,
2013-05-08 10:12:00,56.6,55.0,30.26,SSE,166,1.0,9.0,95,0.06,,,0.07,weatherlink.com 1.10,2013-05-08 14:12:00,
2013-05-08 10:27:00,56.8,55.0,30.26,SSE,147,1.0,5.0,95,0.05,,,0.07,weatherlink.com 1.10,2013-05-08 14:27:00,
2013-05-08 10:42:00,56.8,55.0,30.26,SE,143,8.0,12.0,95,0.05,,,0.10,weatherlink.com 1.10,2013-05-08 14:42:00,
2013-05-08 10:57:00,56.8,55.0,30.26,SSE,155,1.0,5.0,94,0.07,,,0.13,weatherlink.com 1.10,2013-05-08 14:57:00,
2013-05-08 11:12:00,56.4,55.0,30.26,SSE,158,7.0,11.0,94,0.10,,,0.17,weatherlink.com 1.10,2013-05-08 15:12:00,
2013-05-08 11:27:00,56.7,55.0,30.25,SW,226,4.0,6.0,94,0.14,,,0.21,weatherlink.com 1.10,2013-05-08 15:27:00,
2013-05-08 11:42:00,56.7,55.0,30.24,SW,218,1.0,11.0,94,0.13,,,0.23,weatherlink.com 1.10,2013-05-08 15:42:00,
2013-05-08 11:57:00,56.9,55.0,30.24,SW,222,2.0,17.0,94,0.12,,,0.25,weatherlink.com 1.10,2013-05-08 15:57:00,
2013-05-08 12:12:00,57.3,55.0,30.24,SW,217,3.0,18.0,93,0.08,,,0.25,weatherlink.com 1.10,2013-05-08 16:12:00,
2013-05-08 12:27:00,57.2,55.0,30.23,NNE,16,2.0,8.0,93,0.05,,,0.26,weatherlink.com 1.10,2013-05-08 16:27:00,
2013-05-08 12:42:00,57.0,55.0,30.23,NNE,18,0.0,12.0,93,0.08,,,0.32,weatherlink.com 1.10,2013-05-08 16:42:00,
2013-05-08 12:57:00,57.2,56.0,30.23,NE,54,9.0,14.0,94,0.10,,,0.35,weatherlink.com 1.10,2013-05-08 16:57:00,
2013-05-08 13:12:00,57.5,56.0,30.23,SSE,154,3.0,9.0,93,0.10,,,0.35,weatherlink.com 1.10,2013-05-08 17:12:00,
2013-05-08 13:27:00,57.9,56.0,30.22,SW,214,6.0,8.0,92,0.08,,,0.35,weatherlink.com 1.10,2013-05-08 17:27:00,
2013-05-08 13:42:00,58.4,56.0,30.22,SSE,153,6.0,13.0,91,0.04,,,0.36,weatherlink.com 1.10,2013-05-08 17:42:00,
2013-05-08 13:58:00,58.1,56.0,30.21,SE,143,1.0,11.0,91,0.02,,,0.37,weatherlink.com 1.10,2013-05-08 17:58:00,
2013-05-08 14:13:00,57.8,56.0,30.21,North,359,3.0,12.0,92,0.06,,,0.41,weatherlink.com 1.10,2013-05-08 18:13:00,
2013-05-08 14:28:00,57.6,55.0,30.20,South,179,6.0,10.0,92,0.07,,,0.42,weatherlink.com 1.10,2013-05-08 18:28:00,
2013-05-08 14:43:00,57.8,56.0,30.20,ESE,114,3.0,8.0,92,0.06,,,0.42,weatherlink.com 1.10,2013-05-08 18:43:00,
2013-05-08 14:58:00,58.3,56.0,30.19,South,177,0.0,11.0,90,0.05,,,0.42,weatherlink.com 1.10,2013-05-08 18:58:00,
2013-05-08 15:13:00,58.3,56.0,30.18,SSW,204,1.0,10.0,91,0.01,,,0.42,weatherlink.com 1.10,2013-05-08 19:13:00,
2013-05-08 15:28:00,58.4,56.0,30.18,South,185,2.0,7.0,92,0.01,,,0.43,weatherlink.com 1.10,2013-05-08 19:28:00,
2013-05-08 15:43:00,58.6,56.0,30.17,SSW,211,1.0,6.0,91,0.02,,,0.44,weatherlink.com 1.10,2013-05-08 19:43:00,
2013-05-08 15:58:00,58.0,56.0,30.17,South,181,2.0,7.0,92,0.03,,,0.45,weatherlink.com 1.10,2013-05-08 19:58:00,
2013-05-08 16:13:00,57.4,55.0,30.15,NNE,23,2.0,8.0,92,0.10,,,0.52,weatherlink.com 1.10,2013-05-08 20:13:00,
2013-05-08 16:28:00,56.3,55.0,30.14,NW,311,1.0,12.0,94,0.31,,,0.74,weatherlink.com 1.10,2013-05-08 20:28:00,
2013-05-08 16:43:00,56.1,55.0,30.16,North,352,1.0,8.0,95,0.35,,,0.79,weatherlink.com 1.10,2013-05-08 20:43:00,
2013-05-08 16:58:00,57.3,56.0,30.16,ESE,108,1.0,11.0,95,0.35,,,0.80,weatherlink.com 1.10,2013-05-08 20:58:00,
2013-05-08 17:13:00,57.7,56.0,30.16,SW,223,2.0,10.0,94,0.28,,,0.81,weatherlink.com 1.10,2013-05-08 21:13:00,
2013-05-08 17:28:00,57.6,56.0,30.16,SW,236,1.0,8.0,95,0.11,,,0.85,weatherlink.com 1.10,2013-05-08 21:28:00,
2013-05-08 17:43:00,57.9,57.0,30.16,SW,215,1.0,6.0,95,0.07,,,0.86,weatherlink.com 1.10,2013-05-08 21:43:00,
2013-05-08 17:58:00,57.8,56.0,30.16,NE,37,0.0,6.0,95,0.07,,,0.87,weatherlink.com 1.10,2013-05-08 21:58:00,
2013-05-08 18:13:00,58.0,57.0,30.16,SSE,150,3.0,7.0,95,0.08,,,0.89,weatherlink.com 1.10,2013-05-08 22:13:00,
2013-05-08 18:28:00,58.1,57.0,30.16,SSE,160,1.0,4.0,95,0.04,,,0.89,weatherlink.com 1.10,2013-05-08 22:28:00,
2013-05-08 18:43:00,57.6,56.0,30.15,SSE,162,5.0,9.0,94,0.03,,,0.89,weatherlink.com 1.10,2013-05-08 22:43:00,
2013-05-08 18:58:00,57.6,56.0,30.15,SE,131,5.0,10.0,94,0.02,,,0.89,weatherlink.com 1.10,2013-05-08 22:58:00,
2013-05-08 19:13:00,57.4,56.0,30.14,NNE,18,0.0,8.0,94,0.00,,,0.89,weatherlink.com 1.10,2013-05-08 23:13:00,
2013-05-08 19:28:00,57.2,55.0,30.15,SW,214,2.0,10.0,93,0.00,,,0.89,weatherlink.com 1.10,2013-05-08 23:28:00,
2013-05-08 19:43:00,56.8,55.0,30.16,SW,224,1.0,5.0,94,0.00,,,0.89,weatherlink.com 1.10,2013-05-08 23:43:00,
2013-05-08 19:58:00,56.6,55.0,30.16,SW,215,0.0,4.0,94,0.00,,,0.89,weatherlink.com 1.10,2013-05-08 23:58:00,
2013-05-08 20:13:00,56.3,55.0,30.16,SSE,149,1.0,2.0,94,0.00,,,0.89,weatherlink.com 1.10,2013-05-09 00:13:00,
2013-05-08 20:28:00,55.9,54.0,30.16,ENE,65,0.0,5.0,93,0.00,,,0.89,weatherlink.com 1.10,2013-05-09 00:28:00,
2013-05-08 20:43:00,55.6,54.0,30.17,SE,135,3.0,4.0,93,0.00,,,0.89,weatherlink.com 1.10,2013-05-09 00:43:00,
2013-05-08 20:58:00,55.3,53.0,30.18,SE,124,0.0,4.0,93,0.00,,,0.89,weatherlink.com 1.10,2013-05-09 00:58:00,
2013-05-08 21:13:00,55.4,53.0,30.18,SSE,148,2.0,6.0,92,0.00,,,0.89,weatherlink.com 1.10,2013-05-09 01:13:00,
2013-05-08 21:28:00,55.0,53.0,30.18,SW,218,0.0,5.0,92,0.00,,,0.89,weatherlink.com 1.10,2013-05-09 01:28:00,
2013-05-08 21:43:00,54.5,53.0,30.18,SE,143,0.0,5.0,93,0.00,,,0.89,weatherlink.com 1.10,2013-05-09 01:43:00,
2013-05-08 21:58:00,54.0,52.0,30.18,SE,143,2.0,4.0,93,0.00,,,0.89,weatherlink.com 1.10,2013-05-09 01:58:00,
2013-05-08 22:13:00,53.9,52.0,30.20,SW,231,4.0,7.0,93,0.00,,,0.89,weatherlink.com 1.10,2013-05-09 02:13:00,
2013-05-08 22:28:00,54.2,52.0,30.20,WNW,293,1.0,9.0,91,0.00,,,0.89,weatherlink.com 1.10,2013-05-09 02:28:00,
2013-05-08 22:43:00,53.4,51.0,30.20,SSW,205,1.0,2.0,92,0.00,,,0.89,weatherlink.com 1.10,2013-05-09 02:43:00,
2013-05-08 22:58:00,53.3,51.0,30.19,SSW,198,0.0,7.0,91,0.00,,,0.89,weatherlink.com 1.10,2013-05-09 02:58:00,
2013-05-08 23:13:00,51.9,50.0,30.19,SSE,166,0.0,5.0,93,0.00,,,0.89,weatherlink.com 1.10,2013-05-09 03:13:00,
2013-05-08 23:28:00,51.6,50.0,30.18,West,263,1.0,3.0,93,0.00,,,0.89,weatherlink.com 1.10,2013-05-09 03:28:00,
2013-05-08 23:43:00,51.7,50.0,30.18,SSW,212,0.0,4.0,93,0.00,,,0.89,weatherlink.com 1.10,2013-05-09 03:43:00,
2013-05-08 23:58:00,51.3,50.0,30.18,SSW,197,1.0,3.0,94,0.00,,,0.89,weatherlink.com 1.10,2013-05-09 03:58:00,